Time;durP1;ratioP1;P1;durP2;ratioP2;P2;SDS_P1;SDS_P2;PMS_P1;PMS_P2;Temp;Humidity;BMP_temperature;BMP_pressure;BME280_temperature;BME280_humidity;BME280_pressure;Samples;Min_cycle;Max_cycle;Signal;HPM_P1;HPM_P2
2021/07/10 00:00:24;;;;;;;3.83;0.97;;;14.20;99.90;;;;;;5074929;28;20205;-71
2021/07/10 00:02:51;;;;;;;3.40;0.93;;;14.20;99.90;;;;;;5081225;28;20186;-69
2021/07/10 00:05:19;;;;;;;4.33;0.90;;;14.30;99.90;;;;;;5075997;28;20221;-74
2021/07/10 00:07:48;;;;;;;3.27;1.10;;;14.30;99.90;;;;;;5076946;28;20588;-73
2021/07/10 00:10:18;;;;;;;7.23;1.10;;;14.40;99.90;;;;;;5070747;28;20172;-72
2021/07/10 00:12:46;;;;;;;3.63;1.57;;;14.40;99.90;;;;;;5086516;28;20175;-73
2021/07/10 00:15:18;;;;;;;3.70;1.10;;;14.40;99.90;;;;;;5075714;28;20191;-70
2021/07/10 00:17:51;;;;;;;2.63;1.00;;;14.50;99.90;;;;;;5077154;28;20167;-72
2021/07/10 00:20:19;;;;;;;7.60;2.23;;;14.40;99.90;;;;;;5075758;28;20232;-73
2021/07/10 00:22:47;;;;;;;7.77;1.37;;;14.50;99.90;;;;;;5067395;28;20310;-76
2021/07/10 00:25:17;;;;;;;5.03;1.53;;;14.50;99.90;;;;;;5037677;28;20218;-74
2021/07/10 00:27:46;;;;;;;4.13;1.33;;;14.50;99.90;;;;;;5057093;28;20666;-75
2021/07/10 00:30:17;;;;;;;6.00;1.63;;;14.40;99.90;;;;;;5054944;28;20211;-71
2021/07/10 00:32:45;;;;;;;1.93;1.20;;;14.50;99.90;;;;;;5059128;28;20262;-70
2021/07/10 00:35:13;;;;;;;8.53;1.93;;;14.50;99.90;;;;;;5060081;28;20669;-72
2021/07/10 00:37:41;;;;;;;3.43;1.17;;;14.60;99.90;;;;;;5070036;28;20502;-74
2021/07/10 00:40:10;;;;;;;4.57;1.77;;;14.60;99.90;;;;;;5066987;28;20228;-82
2021/07/10 00:42:39;;;;;;;3.83;1.37;;;14.60;99.90;;;;;;5064305;28;20180;-79
2021/07/10 00:45:09;;;;;;;6.93;1.97;;;14.60;99.90;;;;;;5057612;28;20182;-78
2021/07/10 00:47:37;;;;;;;6.17;1.70;;;14.70;99.90;;;;;;5063475;28;20198;-74
2021/07/10 00:50:25;;;;;;;3.30;1.27;;;14.70;99.90;;;;;;5061792;28;20176;-75
2021/07/10 00:52:53;;;;;;;8.77;2.27;;;14.70;99.90;;;;;;5071391;28;20171;-76
2021/07/10 00:55:23;;;;;;;5.63;1.80;;;14.70;99.90;;;;;;5069206;28;20190;-76
2021/07/10 00:57:52;;;;;;;6.87;1.70;;;14.60;99.90;;;;;;5059210;28;20678;-79
2021/07/10 01:00:22;;;;;;;6.03;1.60;;;14.60;99.90;;;;;;5052921;28;20192;-73
2021/07/10 01:02:51;;;;;;;5.13;1.43;;;14.60;99.90;;;;;;5060216;28;20491;-72
2021/07/10 01:05:31;;;;;;;4.87;1.50;;;14.50;99.90;;;;;;5053293;28;20578;-77
2021/07/10 01:07:59;;;;;;;6.63;1.60;;;14.60;99.90;;;;;;5063053;28;20518;-75
2021/07/10 01:10:27;;;;;;;9.40;1.77;;;14.70;99.90;;;;;;5068715;28;20172;-75
2021/07/10 01:12:56;;;;;;;5.30;1.20;;;14.70;99.90;;;;;;5055350;28;20183;-75
2021/07/10 01:15:26;;;;;;;7.77;1.33;;;14.80;99.90;;;;;;5055855;28;20251;-74
2021/07/10 01:17:57;;;;;;;7.20;1.80;;;14.80;99.90;;;;;;5054713;28;20183;-74
2021/07/10 01:20:26;;;;;;;6.90;1.90;;;14.80;99.90;;;;;;5054381;28;20176;-75
2021/07/10 01:22:56;;;;;;;10.80;1.90;;;14.80;99.90;;;;;;5038751;28;20223;-72
2021/07/10 01:25:25;;;;;;;5.47;1.70;;;14.80;99.90;;;;;;5059602;28;20176;-76
2021/07/10 01:27:55;;;;;;;4.97;1.40;;;14.80;99.90;;;;;;5051344;28;20593;-72
2021/07/10 01:30:23;;;;;;;5.53;2.20;;;14.70;99.90;;;;;;5073433;28;20182;-73
2021/07/10 01:32:52;;;;;;;7.27;1.40;;;14.70;99.90;;;;;;5048036;28;20219;-70
2021/07/10 01:35:21;;;;;;;4.07;1.43;;;14.80;99.90;;;;;;5041878;28;20176;-75
2021/07/10 01:37:49;;;;;;;6.17;1.40;;;14.80;99.90;;;;;;5054594;28;20188;-77
2021/07/10 01:40:18;;;;;;;5.40;1.80;;;14.80;99.90;;;;;;5049212;28;20199;-74
2021/07/10 01:42:47;;;;;;;6.50;1.63;;;14.70;99.90;;;;;;5054531;28;20585;-72
2021/07/10 01:45:17;;;;;;;6.90;1.60;;;14.70;99.90;;;;;;5053883;28;20226;-74
2021/07/10 01:47:44;;;;;;;5.73;1.80;;;14.60;99.90;;;;;;5052196;28;20180;-70
2021/07/10 01:50:12;;;;;;;6.03;1.70;;;14.50;99.90;;;;;;5056640;28;20201;-73
2021/07/10 01:52:41;;;;;;;3.40;1.70;;;14.50;99.90;;;;;;5055916;28;20184;-77
2021/07/10 01:55:12;;;;;;;5.40;1.20;;;14.50;99.90;;;;;;5055286;28;20185;-71
2021/07/10 01:57:41;;;;;;;11.93;2.37;;;14.60;99.90;;;;;;5054682;28;20200;-71
2021/07/10 02:00:13;;;;;;;3.87;1.63;;;14.60;99.90;;;;;;5062908;28;20180;-76
2021/07/10 02:02:42;;;;;;;3.50;1.63;;;14.60;99.90;;;;;;5054075;28;20184;-77
2021/07/10 02:05:11;;;;;;;3.77;1.40;;;14.60;99.90;;;;;;5054763;28;20192;-71
2021/07/10 02:07:39;;;;;;;7.67;1.70;;;14.60;99.90;;;;;;5063503;28;20195;-70
2021/07/10 02:10:09;;;;;;;6.27;1.83;;;14.60;99.90;;;;;;5065962;28;20221;-74
2021/07/10 02:12:38;;;;;;;6.10;1.53;;;14.60;99.90;;;;;;5053651;28;20197;-73
2021/07/10 02:15:07;;;;;;;4.70;1.37;;;14.60;99.90;;;;;;5062044;28;20182;-76
2021/07/10 02:17:34;;;;;;;7.87;1.60;;;14.70;99.90;;;;;;5066928;28;20187;-72
2021/07/10 02:20:05;;;;;;;5.30;1.30;;;14.70;99.90;;;;;;5058538;28;20183;-72
2021/07/10 02:22:33;;;;;;;6.03;1.30;;;14.70;99.90;;;;;;5062083;28;20564;-70
2021/07/10 02:25:00;;;;;;;4.63;1.70;;;14.80;99.90;;;;;;5053479;28;20638;-75
2021/07/10 02:27:28;;;;;;;3.83;1.20;;;14.90;99.90;;;;;;5072502;28;20254;-74
2021/07/10 02:29:58;;;;;;;6.37;1.70;;;14.80;99.90;;;;;;5080267;28;20202;-71
2021/07/10 02:32:25;;;;;;;4.37;1.10;;;14.90;99.90;;;;;;5083102;28;20233;-73
2021/07/10 02:34:53;;;;;;;2.93;1.40;;;14.80;99.90;;;;;;5073288;28;20525;-76
2021/07/10 02:37:20;;;;;;;3.80;1.57;;;14.90;99.90;;;;;;5073413;28;20183;-76
2021/07/10 02:39:47;;;;;;;6.00;1.23;;;14.90;99.90;;;;;;5072501;28;20182;-73
2021/07/10 02:42:15;;;;;;;2.73;1.20;;;14.90;99.90;;;;;;5072296;28;20590;-74
2021/07/10 02:44:42;;;;;;;4.60;1.17;;;14.90;99.90;;;;;;5081775;28;20244;-72
2021/07/10 02:47:09;;;;;;;5.50;1.40;;;14.90;99.90;;;;;;5063524;28;20217;-73
2021/07/10 02:49:37;;;;;;;4.70;1.20;;;14.90;99.90;;;;;;5057393;28;20390;-73
2021/07/10 02:52:07;;;;;;;4.30;1.23;;;14.80;99.90;;;;;;5072433;28;20211;-75
2021/07/10 02:54:38;;;;;;;4.97;1.40;;;14.80;99.90;;;;;;5070280;28;20186;-72
2021/07/10 02:57:06;;;;;;;4.37;1.50;;;14.70;99.90;;;;;;5072183;28;20316;-74
2021/07/10 02:59:33;;;;;;;7.47;1.63;;;14.70;99.90;;;;;;5069904;28;20180;-71
2021/07/10 03:02:02;;;;;;;8.53;1.40;;;14.70;99.90;;;;;;5072253;28;20183;-74
2021/07/10 03:04:29;;;;;;;3.10;1.30;;;14.70;99.90;;;;;;5057940;28;20177;-74
2021/07/10 03:10:47;;;;;;;3.10;1.10;;;14.70;99.90;;;;;;5080361;28;20212;-73
2021/07/10 03:13:16;;;;;;;6.73;1.70;;;14.80;99.90;;;;;;5077153;28;20219;-69
2021/07/10 03:15:43;;;;;;;4.20;1.50;;;14.70;99.90;;;;;;5077317;28;20180;-74
2021/07/10 03:18:11;;;;;;;6.43;1.63;;;14.60;99.90;;;;;;5076546;28;20218;-74
2021/07/10 03:20:38;;;;;;;9.20;1.90;;;14.40;99.90;;;;;;5072500;28;20201;-76
2021/07/10 03:23:06;;;;;;;5.93;1.50;;;14.20;99.90;;;;;;5070587;28;20226;-73
2021/07/10 03:25:34;;;;;;;7.50;1.83;;;14.00;99.90;;;;;;5073611;28;20546;-76
2021/07/10 03:28:01;;;;;;;12.93;2.47;;;13.80;99.90;;;;;;5071341;28;20562;-74
2021/07/10 03:30:29;;;;;;;8.67;2.90;;;13.70;99.90;;;;;;5071486;28;20183;-69
2021/07/10 03:32:56;;;;;;;9.80;2.50;;;13.50;99.90;;;;;;5072467;28;20270;-70
2021/07/10 03:35:24;;;;;;;11.33;2.77;;;13.50;99.90;;;;;;5068340;28;20191;-71
2021/07/10 03:37:52;;;;;;;11.53;2.37;;;13.40;99.90;;;;;;5065899;28;20218;-70
2021/07/10 03:40:23;;;;;;;6.47;1.73;;;13.30;99.90;;;;;;5061377;28;20175;-69
2021/07/10 03:42:52;;;;;;;10.07;2.00;;;13.20;99.90;;;;;;5072548;28;20203;-68
2021/07/10 03:45:19;;;;;;;13.80;2.40;;;13.00;99.90;;;;;;5072407;28;20206;-69
2021/07/10 03:47:48;;;;;;;21.63;3.83;;;12.90;99.90;;;;;;5086119;28;20269;-68
2021/07/10 03:50:18;;;;;;;16.90;3.47;;;12.80;99.90;;;;;;5066470;28;20201;-73
2021/07/10 03:52:46;;;;;;;18.70;3.13;;;12.90;99.90;;;;;;5047191;28;20247;-73
2021/07/10 03:55:14;;;;;;;13.07;3.23;;;13.00;99.90;;;;;;5067512;28;20194;-71
2021/07/10 03:57:42;;;;;;;8.67;3.17;;;13.00;99.90;;;;;;5067048;28;20182;-71
2021/07/10 04:00:18;;;;;;;13.77;3.10;;;13.10;99.90;;;;;;5048095;28;20538;-70
2021/07/10 04:02:45;;;;;;;18.60;3.70;;;13.10;99.90;;;;;;5071626;28;20267;-69
2021/07/10 04:05:13;;;;;;;11.93;3.47;;;13.00;99.90;;;;;;5074992;28;20187;-71
2021/07/10 04:07:41;;;;;;;13.23;4.20;;;13.10;99.90;;;;;;5072264;28;20672;-72
2021/07/10 04:10:10;;;;;;;17.77;3.90;;;13.30;99.90;;;;;;5071335;28;20188;-68
2021/07/10 04:12:37;;;;;;;12.67;2.93;;;13.40;99.90;;;;;;5070858;28;20225;-69
2021/07/10 04:15:06;;;;;;;10.57;3.10;;;13.40;99.90;;;;;;5075587;28;20177;-70
2021/07/10 04:17:33;;;;;;;15.77;2.90;;;13.40;99.90;;;;;;5075286;28;20607;-68
2021/07/10 04:20:01;;;;;;;13.93;3.60;;;13.50;99.90;;;;;;5075127;28;20176;-70
2021/07/10 04:22:29;;;;;;;14.47;3.00;;;13.60;99.90;;;;;;5072003;28;20255;-71
2021/07/10 04:24:56;;;;;;;14.60;3.13;;;13.60;99.90;;;;;;5055521;28;20641;-73
2021/07/10 04:27:23;;;;;;;9.57;2.20;;;13.70;99.90;;;;;;5073445;28;20657;-71
2021/07/10 04:29:54;;;;;;;9.17;2.30;;;13.70;99.90;;;;;;5075339;28;20175;-75
2021/07/10 04:32:21;;;;;;;8.50;2.37;;;13.70;99.90;;;;;;5075137;28;20180;-73
2021/07/10 04:34:52;;;;;;;8.43;2.27;;;13.70;99.90;;;;;;5074084;28;20180;-73
2021/07/10 04:37:20;;;;;;;8.97;2.00;;;13.60;99.90;;;;;;5074448;28;20182;-71
2021/07/10 04:39:47;;;;;;;13.87;2.63;;;13.60;99.90;;;;;;5074388;28;20270;-75
2021/07/10 04:42:15;;;;;;;11.87;3.03;;;13.60;99.90;;;;;;5073041;28;20617;-74
2021/07/10 04:44:43;;;;;;;12.00;2.63;;;13.70;99.90;;;;;;5074578;28;20180;-75
2021/07/10 04:47:11;;;;;;;9.27;3.17;;;13.80;99.90;;;;;;5074723;28;20210;-73
2021/07/10 04:49:39;;;;;;;7.30;2.27;;;13.80;99.90;;;;;;5074650;28;20188;-75
2021/07/10 04:52:07;;;;;;;8.40;2.07;;;13.80;99.90;;;;;;5074447;28;20187;-78
2021/07/10 04:54:34;;;;;;;10.07;2.27;;;13.90;99.90;;;;;;5075493;28;20204;-74
2021/07/10 04:57:02;;;;;;;13.47;2.30;;;14.00;99.90;;;;;;5074914;28;20183;-74
2021/07/10 04:59:30;;;;;;;11.10;2.53;;;14.10;99.90;;;;;;5074123;28;20325;-75
2021/07/10 05:01:57;;;;;;;13.43;2.27;;;14.20;99.90;;;;;;5074815;28;20193;-74
2021/07/10 05:04:25;;;;;;;11.90;2.30;;;14.20;99.90;;;;;;5075070;28;20171;-75
2021/07/10 05:06:52;;;;;;;6.27;1.73;;;14.30;99.90;;;;;;5075070;28;20222;-72
2021/07/10 05:09:19;;;;;;;6.93;1.70;;;14.30;99.90;;;;;;5074381;28;20176;-75
2021/07/10 05:11:48;;;;;;;10.20;1.77;;;14.20;99.90;;;;;;5075096;28;20220;-76
2021/07/10 05:14:16;;;;;;;11.63;3.00;;;14.30;99.90;;;;;;5074085;28;20168;-78
2021/07/10 05:16:47;;;;;;;9.53;2.37;;;14.20;99.90;;;;;;5074197;28;20191;-73
2021/07/10 05:19:14;;;;;;;11.90;2.30;;;14.10;99.90;;;;;;5075081;28;20179;-78
2021/07/10 05:21:41;;;;;;;6.37;2.37;;;14.00;99.90;;;;;;5073969;28;20266;-73
2021/07/10 05:24:09;;;;;;;9.90;1.90;;;14.10;99.90;;;;;;5074492;28;20187;-74
2021/07/10 05:26:36;;;;;;;9.90;2.00;;;14.10;99.90;;;;;;5074232;28;20212;-70
2021/07/10 05:29:06;;;;;;;9.20;1.97;;;14.20;99.90;;;;;;5074659;28;20647;-73
2021/07/10 05:31:36;;;;;;;9.83;2.30;;;14.40;99.90;;;;;;5075430;28;20179;-76
2021/07/10 05:34:04;;;;;;;14.57;2.53;;;14.40;99.90;;;;;;5074531;28;20178;-73
2021/07/10 05:36:31;;;;;;;6.57;1.53;;;14.20;99.90;;;;;;5083020;28;20266;-71
2021/07/10 05:38:58;;;;;;;4.60;1.00;;;13.90;99.90;;;;;;5086260;28;20513;-75
2021/07/10 05:41:26;;;;;;;2.00;0.80;;;13.50;99.90;;;;;;5094772;28;20251;-71
2021/07/10 05:43:53;;;;;;;6.07;1.97;;;13.40;99.90;;;;;;5075000;28;20183;-72
2021/07/10 05:46:20;;;;;;;7.33;1.33;;;13.20;99.90;;;;;;5062410;28;20743;-69
2021/07/10 05:48:48;;;;;;;6.57;1.30;;;13.00;99.90;;;;;;5063611;28;20187;-70
2021/07/10 05:51:15;;;;;;;6.57;0.97;;;12.90;99.90;;;;;;5087261;28;20185;-69
2021/07/10 05:53:43;;;;;;;3.83;1.67;;;12.80;99.90;;;;;;5074841;28;20384;-73
2021/07/10 05:56:10;;;;;;;2.37;1.20;;;12.70;99.90;;;;;;5077117;28;20536;-76
2021/07/10 05:58:37;;;;;;;3.70;1.37;;;12.70;99.90;;;;;;5068821;28;20168;-74
2021/07/10 06:01:05;;;;;;;3.03;1.37;;;12.60;99.90;;;;;;5063142;28;20258;-73
2021/07/10 06:03:32;;;;;;;4.97;1.30;;;12.70;99.90;;;;;;5073317;28;20186;-73
2021/07/10 06:06:00;;;;;;;6.23;1.60;;;12.70;99.90;;;;;;5073984;28;20195;-69
2021/07/10 06:08:28;;;;;;;12.10;1.50;;;12.60;99.90;;;;;;5071831;28;20191;-72
2021/07/10 06:10:56;;;;;;;6.13;1.50;;;12.60;99.90;;;;;;5070614;28;20356;-75
2021/07/10 06:13:23;;;;;;;6.47;2.10;;;12.70;99.90;;;;;;5072981;28;20178;-70
2021/07/10 06:15:51;;;;;;;12.93;3.03;;;12.70;99.90;;;;;;5070913;28;20178;-73
2021/07/10 06:18:18;;;;;;;8.30;2.60;;;12.60;99.90;;;;;;5072856;28;20183;-72
2021/07/10 06:20:46;;;;;;;7.50;1.93;;;12.70;99.90;;;;;;5072856;28;20167;-71
2021/07/10 06:23:13;;;;;;;11.67;2.73;;;12.70;99.90;;;;;;5070315;28;20330;-73
2021/07/10 06:25:41;;;;;;;10.10;2.80;;;12.60;99.90;;;;;;5072540;28;20233;-75
2021/07/10 06:28:08;;;;;;;10.70;3.27;;;12.70;99.90;;;;;;5072218;28;20195;-71
2021/07/10 06:30:37;;;;;;;11.03;3.27;;;12.70;99.90;;;;;;5072686;28;20266;-71
2021/07/10 06:33:05;;;;;;;16.53;3.67;;;12.70;99.90;;;;;;5069395;28;20194;-73
2021/07/10 06:35:32;;;;;;;13.57;4.20;;;12.70;99.90;;;;;;5074973;28;20244;-69
2021/07/10 06:38:00;;;;;;;13.90;3.80;;;12.70;99.90;;;;;;5069583;28;20175;-70
2021/07/10 06:40:27;;;;;;;12.43;2.63;;;12.70;99.90;;;;;;5067603;28;20690;-70
2021/07/10 06:42:55;;;;;;;12.63;2.70;;;12.70;99.90;;;;;;5064559;28;20180;-73
2021/07/10 06:45:23;;;;;;;6.07;2.23;;;12.70;99.90;;;;;;5070980;28;20539;-70
2021/07/10 06:47:50;;;;;;;9.53;2.90;;;12.60;99.90;;;;;;5078627;28;20183;-72
2021/07/10 06:50:20;;;;;;;12.70;2.40;;;12.60;99.90;;;;;;5071769;28;20385;-74
2021/07/10 06:52:48;;;;;;;7.90;2.57;;;12.50;99.90;;;;;;5060958;28;20194;-70
2021/07/10 06:55:16;;;;;;;14.07;2.80;;;12.50;99.90;;;;;;5052591;28;20202;-71
2021/07/10 06:57:44;;;;;;;18.40;2.90;;;12.50;99.90;;;;;;5071938;28;20262;-69
2021/07/10 07:00:16;;;;;;;9.60;2.80;;;12.50;99.90;;;;;;5067215;28;20660;-71
2021/07/10 07:02:44;;;;;;;14.87;2.97;;;12.50;99.90;;;;;;5072556;28;20174;-71
2021/07/10 07:05:12;;;;;;;16.87;3.57;;;12.40;99.90;;;;;;5071180;28;20183;-72
2021/07/10 07:07:40;;;;;;;13.17;2.53;;;12.50;99.90;;;;;;5070422;28;20215;-72
2021/07/10 07:10:09;;;;;;;11.10;3.57;;;12.50;99.90;;;;;;5071801;28;20175;-71
2021/07/10 07:12:37;;;;;;;7.33;2.20;;;12.50;99.90;;;;;;5079774;28;20556;-67
2021/07/10 07:15:07;;;;;;;19.33;9.97;;;12.50;99.90;;;;;;5071652;28;20526;-69
2021/07/10 07:17:35;;;;;;;19.03;10.63;;;12.50;99.90;;;;;;5072438;28;20175;-73
2021/07/10 07:20:04;;;;;;;12.43;4.80;;;12.60;99.90;;;;;;5070652;28;20183;-73
2021/07/10 07:22:31;;;;;;;9.23;4.07;;;12.60;99.90;;;;;;5066096;28;20224;-72
2021/07/10 07:24:59;;;;;;;9.43;3.30;;;12.50;99.90;;;;;;5063460;28;20171;-72
2021/07/10 07:27:26;;;;;;;12.70;3.03;;;12.50;99.90;;;;;;5071671;28;20363;-72
2021/07/10 07:29:54;;;;;;;10.53;3.10;;;12.50;99.90;;;;;;5071851;28;20179;-70
2021/07/10 07:32:21;;;;;;;7.27;3.40;;;12.50;99.90;;;;;;5072556;28;20263;-73
2021/07/10 07:34:49;;;;;;;11.73;3.87;;;12.50;99.90;;;;;;5071827;28;20203;-72
2021/07/10 07:37:17;;;;;;;11.50;3.17;;;12.50;99.90;;;;;;5070269;28;20189;-72
2021/07/10 07:39:46;;;;;;;14.73;3.63;;;12.50;99.90;;;;;;5075504;28;20160;-73
2021/07/10 07:42:17;;;;;;;12.70;3.67;;;12.50;99.90;;;;;;5075409;28;20211;-73
2021/07/10 07:44:46;;;;;;;11.73;3.77;;;12.50;99.90;;;;;;5079460;28;20202;-69
2021/07/10 07:47:18;;;;;;;16.00;3.87;;;12.50;99.90;;;;;;5067411;28;20250;-73
2021/07/10 07:49:48;;;;;;;13.03;3.90;;;12.50;99.90;;;;;;5061345;28;20175;-76
2021/07/10 07:52:16;;;;;;;17.50;4.30;;;12.40;99.90;;;;;;5074943;28;20218;-74
2021/07/10 07:54:43;;;;;;;11.30;3.20;;;12.50;99.90;;;;;;5075218;28;20622;-77
2021/07/10 07:57:10;;;;;;;5.83;2.87;;;12.40;99.90;;;;;;5075412;28;20258;-73
2021/07/10 07:59:38;;;;;;;12.70;3.10;;;12.40;99.90;;;;;;5068027;28;20657;-74
2021/07/10 08:02:07;;;;;;;9.00;3.97;;;12.40;99.90;;;;;;5074692;28;20224;-75
2021/07/10 08:04:35;;;;;;;9.70;4.00;;;12.40;99.90;;;;;;5074898;28;20211;-74
2021/07/10 08:07:04;;;;;;;11.50;3.40;;;12.30;99.90;;;;;;5072985;28;20209;-70
2021/07/10 08:09:32;;;;;;;14.67;3.90;;;12.30;99.90;;;;;;5069324;28;20186;-73
2021/07/10 08:11:59;;;;;;;11.87;3.93;;;12.30;99.90;;;;;;5072769;28;20186;-74
2021/07/10 08:14:27;;;;;;;12.23;4.53;;;12.30;99.90;;;;;;5074879;28;20163;-72
2021/07/10 08:16:54;;;;;;;14.03;4.63;;;12.30;99.90;;;;;;5063763;28;20184;-73
2021/07/10 08:19:22;;;;;;;14.43;5.00;;;12.30;99.90;;;;;;5062163;28;20627;-74
2021/07/10 08:21:49;;;;;;;12.93;5.57;;;12.30;99.90;;;;;;5068848;28;20262;-73
2021/07/10 08:24:17;;;;;;;8.30;4.77;;;12.30;99.90;;;;;;5080123;28;20176;-73
2021/07/10 08:26:44;;;;;;;12.53;4.83;;;12.30;99.90;;;;;;5076344;28;20251;-71
2021/07/10 08:29:12;;;;;;;9.97;3.63;;;12.30;99.90;;;;;;5079039;28;20180;-70
2021/07/10 08:31:42;;;;;;;9.60;3.60;;;12.20;99.90;;;;;;5075610;28;20524;-71
2021/07/10 08:34:10;;;;;;;12.00;3.97;;;12.20;99.90;;;;;;5079403;28;20175;-70
2021/07/10 08:36:38;;;;;;;13.23;4.53;;;12.10;99.90;;;;;;5077907;28;20183;-69
2021/07/10 08:39:07;;;;;;;12.73;5.07;;;12.20;99.90;;;;;;5073879;28;20232;-73
2021/07/10 08:41:36;;;;;;;10.87;5.63;;;12.20;99.90;;;;;;5080546;28;20183;-72
2021/07/10 08:44:04;;;;;;;6.70;4.23;;;12.20;99.90;;;;;;5081199;28;20171;-73
2021/07/10 08:46:32;;;;;;;7.27;3.67;;;12.20;99.90;;;;;;5073569;28;20718;-72
2021/07/10 08:48:59;;;;;;;10.17;3.20;;;12.20;99.90;;;;;;5086128;28;20185;-71
2021/07/10 08:51:27;;;;;;;10.50;4.03;;;12.20;99.90;;;;;;5077298;28;20722;-76
2021/07/10 08:53:54;;;;;;;6.87;3.60;;;12.20;99.90;;;;;;5084358;28;20236;-73
2021/07/10 08:56:22;;;;;;;10.00;3.33;;;12.20;99.90;;;;;;5085076;28;20183;-74
2021/07/10 08:58:49;;;;;;;12.73;3.77;;;12.20;99.90;;;;;;5055020;28;20190;-75
2021/07/10 09:01:16;;;;;;;9.83;3.40;;;12.20;99.90;;;;;;5068373;28;20181;-75
2021/07/10 09:03:44;;;;;;;7.77;4.90;;;12.20;99.90;;;;;;5079796;28;20176;-71
2021/07/10 09:06:11;;;;;;;7.87;4.50;;;12.20;99.90;;;;;;5083133;28;20221;-74
2021/07/10 09:08:41;;;;;;;9.93;4.80;;;12.20;99.90;;;;;;5075727;28;20179;-72
2021/07/10 09:11:17;;;;;;;9.37;4.73;;;12.20;99.90;;;;;;5082657;28;20186;-76
2021/07/10 09:13:48;;;;;;;13.47;6.00;;;12.10;99.90;;;;;;5081450;28;20210;-75
2021/07/10 09:16:27;;;;;;;11.27;5.20;;;12.10;99.90;;;;;;5081759;28;20211;-74
2021/07/10 09:19:02;;;;;;;14.43;5.80;;;12.10;99.90;;;;;;5074715;28;20265;-75
2021/07/10 09:21:44;;;;;;;13.37;6.70;;;12.10;99.90;;;;;;5077916;28;20647;-75
2021/07/10 09:24:35;;;;;;;10.17;5.43;;;12.10;99.90;;;;;;5053138;28;20217;-73
2021/07/10 09:27:08;;;;;;;10.90;5.90;;;12.00;99.90;;;;;;5035047;28;20228;-75
2021/07/10 09:29:46;;;;;;;13.57;7.13;;;12.10;99.90;;;;;;5055435;28;20176;-77
2021/07/10 09:32:20;;;;;;;11.23;5.63;;;12.10;99.90;;;;;;5051529;28;20194;-73
2021/07/10 09:34:50;;;;;;;10.97;6.60;;;12.10;99.90;;;;;;5053931;28;20241;-76
2021/07/10 09:37:21;;;;;;;9.50;6.93;;;12.10;99.90;;;;;;5043721;28;20176;-73
2021/07/10 09:40:10;;;;;;;16.93;10.63;;;12.00;99.90;;;;;;5053428;28;20192;-76
2021/07/10 09:42:40;;;;;;;18.10;9.53;;;12.10;99.90;;;;;;5054212;28;20172;-73
2021/07/10 09:45:21;;;;;;;9.57;5.70;;;12.10;99.90;;;;;;5050321;28;20250;-72
2021/07/10 09:47:49;;;;;;;11.03;6.50;;;12.10;99.90;;;;;;5053749;28;20219;-72
2021/07/10 09:50:24;;;;;;;11.57;5.30;;;12.00;99.90;;;;;;5053662;28;20176;-74
2021/07/10 09:52:51;;;;;;;8.20;4.30;;;12.00;99.90;;;;;;5053437;28;20182;-71
2021/07/10 09:55:19;;;;;;;11.97;4.90;;;12.00;99.90;;;;;;5053514;28;20671;-72
2021/07/10 09:57:47;;;;;;;9.23;4.67;;;12.00;99.90;;;;;;5053901;28;20175;-69
2021/07/10 10:00:20;;;;;;;6.67;4.33;;;12.00;99.90;;;;;;5039163;28;20310;-72
2021/07/10 10:02:50;;;;;;;9.33;4.73;;;12.00;99.90;;;;;;5053461;28;20184;-69
2021/07/10 10:05:20;;;;;;;6.80;3.83;;;12.00;99.90;;;;;;5053737;28;20176;-71
2021/07/10 10:07:50;;;;;;;6.17;4.90;;;12.00;99.90;;;;;;5053276;28;20539;-78
2021/07/10 10:10:39;;;;;;;10.73;5.73;;;12.00;99.90;;;;;;5052891;28;20618;-77
2021/07/10 10:13:09;;;;;;;13.83;4.57;;;12.00;99.90;;;;;;5053226;28;20210;-78
2021/07/10 10:15:41;;;;;;;7.23;4.30;;;11.90;99.90;;;;;;5052801;28;20646;-78
2021/07/10 10:18:14;;;;;;;9.97;4.70;;;11.90;99.90;;;;;;5052884;28;20174;-78
2021/07/10 10:20:42;;;;;;;7.10;3.50;;;11.90;99.90;;;;;;5052898;28;20638;-76
2021/07/10 10:23:12;;;;;;;5.87;3.47;;;11.90;99.90;;;;;;5064757;28;20215;-75
2021/07/10 10:25:40;;;;;;;5.37;3.33;;;11.80;99.90;;;;;;5072584;28;20186;-76
2021/07/10 10:28:18;;;;;;;4.97;3.20;;;11.80;99.90;;;;;;5072609;28;20706;-70
2021/07/10 10:30:50;;;;;;;9.50;3.17;;;11.80;99.90;;;;;;5070488;28;20183;-74
2021/07/10 10:33:18;;;;;;;5.67;3.13;;;11.70;99.90;;;;;;5062640;28;20339;-72
2021/07/10 10:35:50;;;;;;;6.77;3.53;;;11.70;99.90;;;;;;5067954;28;20209;-75
2021/07/10 10:38:18;;;;;;;6.00;3.17;;;11.70;99.90;;;;;;5072609;28;20180;-75
2021/07/10 10:40:47;;;;;;;7.13;3.00;;;11.60;99.90;;;;;;5070422;28;20183;-73
2021/07/10 10:43:16;;;;;;;8.70;2.80;;;11.60;99.90;;;;;;5072351;28;20547;-71
2021/07/10 10:45:46;;;;;;;4.10;2.37;;;11.60;99.90;;;;;;5061353;28;20347;-74
2021/07/10 10:48:17;;;;;;;5.47;2.40;;;11.60;99.90;;;;;;5059470;28;20285;-74
2021/07/10 10:50:45;;;;;;;4.93;2.47;;;11.60;99.90;;;;;;5071097;28;20178;-74
2021/07/10 10:53:23;;;;;;;9.93;3.30;;;11.60;99.90;;;;;;5071791;28;20178;-71
2021/07/10 10:55:51;;;;;;;3.87;2.00;;;11.60;99.90;;;;;;5072332;28;20628;-71
2021/07/10 10:58:26;;;;;;;6.77;2.30;;;11.60;99.90;;;;;;5070158;28;20183;-73
2021/07/10 11:01:03;;;;;;;4.13;2.00;;;11.60;99.90;;;;;;5066075;28;20812;-71
2021/07/10 11:03:56;;;;;;;8.43;2.50;;;11.50;99.90;;;;;;5069376;28;20231;-70
2021/07/10 11:06:31;;;;;;;4.37;2.17;;;11.50;99.90;;;;;;5069745;28;20259;-70
2021/07/10 11:08:59;;;;;;;6.70;2.27;;;11.40;99.90;;;;;;5071651;28;20174;-71
2021/07/10 11:11:34;;;;;;;9.73;2.97;;;11.40;99.90;;;;;;5072258;28;20179;-81
2021/07/10 11:14:11;;;;;;;4.47;2.10;;;11.50;99.90;;;;;;5058492;28;20192;-70
2021/07/10 11:17:00;;;;;;;6.53;2.30;;;11.50;99.90;;;;;;5060322;28;20277;-74
2021/07/10 11:19:49;;;;;;;6.57;2.10;;;11.50;99.90;;;;;;5060134;28;20182;-73
2021/07/10 11:22:54;;;;;;;8.20;2.80;;;11.30;99.90;;;;;;5069116;28;20241;-75
2021/07/10 11:25:45;;;;;;;8.03;3.00;;;11.20;99.90;;;;;;5072120;28;20202;-75
2021/07/10 11:28:21;;;;;;;9.73;3.15;;;11.20;99.90;;;;;;5063102;28;20778;-76
2021/07/10 11:30:53;;;;;;;6.13;2.40;;;11.10;99.90;;;;;;5072102;28;20186;-75
2021/07/10 11:33:57;;;;;;;7.50;2.70;;;11.10;99.90;;;;;;5072108;28;20198;-71
2021/07/10 11:36:43;;;;;;;8.00;3.30;;;11.20;99.90;;;;;;5068946;28;20170;-75
2021/07/10 11:39:32;;;;;;;11.43;3.70;;;11.20;99.90;;;;;;5071987;28;20523;-72
2021/07/10 11:42:21;;;;;;;11.63;3.93;;;11.30;99.90;;;;;;5072051;28;20235;-74
2021/07/10 11:44:52;;;;;;;10.10;2.90;;;11.40;99.90;;;;;;5062552;28;20183;-75
2021/07/10 11:47:43;;;;;;;9.80;3.30;;;11.50;99.90;;;;;;5057167;28;20218;-73
2021/07/10 11:50:16;;;;;;;10.73;3.00;;;11.50;99.90;;;;;;5063960;28;20190;-70
2021/07/10 11:53:14;;;;;;;10.70;2.93;;;11.60;99.90;;;;;;5071302;28;20179;-71
2021/07/10 11:55:43;;;;;;;11.60;4.03;;;11.60;99.90;;;;;;5063163;28;20191;-75
2021/07/10 11:58:16;;;;;;;15.40;4.53;;;11.60;99.90;;;;;;5070875;28;20194;-72
2021/07/10 12:00:44;;;;;;;11.87;2.93;;;11.50;99.90;;;;;;5063911;28;20182;-73
2021/07/10 12:03:20;;;;;;;12.40;3.03;;;11.50;99.90;;;;;;5066367;28;20205;-72
2021/07/10 12:05:49;;;;;;;17.87;3.20;;;11.40;99.90;;;;;;5066002;28;20190;-71
2021/07/10 12:08:18;;;;;;;6.73;3.20;;;11.40;99.90;;;;;;5077305;28;20281;-71
2021/07/10 12:10:47;;;;;;;9.37;2.87;;;11.30;99.90;;;;;;5071082;28;20177;-73
2021/07/10 12:13:27;;;;;;;9.30;3.00;;;11.30;99.90;;;;;;5071652;28;20802;-70
2021/07/10 12:16:06;;;;;;;6.07;3.30;;;11.20;99.90;;;;;;5071319;28;20245;-71
2021/07/10 12:18:35;;;;;;;6.70;2.53;;;11.10;99.90;;;;;;5071727;28;20731;-70
2021/07/10 12:21:13;;;;;;;5.63;2.77;;;11.10;99.90;;;;;;5071671;28;20661;-70
2021/07/10 12:23:43;;;;;;;9.10;3.00;;;11.10;99.90;;;;;;5071456;28;20218;-70
2021/07/10 12:26:17;;;;;;;7.60;3.43;;;11.10;99.90;;;;;;5074840;28;20207;-71
2021/07/10 12:28:52;;;;;;;8.00;3.27;;;11.00;99.90;;;;;;5075269;28;20208;-69
2021/07/10 12:31:35;;;;;;;5.47;2.30;;;10.90;99.90;;;;;;5075105;28;20173;-71
2021/07/10 12:34:04;;;;;;;4.63;2.43;;;10.80;99.90;;;;;;5074613;28;20186;-70
2021/07/10 12:36:43;;;;;;;4.33;2.73;;;10.80;99.90;;;;;;5075158;28;20232;-70
2021/07/10 12:39:19;;;;;;;7.40;2.47;;;10.70;99.90;;;;;;5074862;28;20693;-70
2021/07/10 12:41:56;;;;;;;6.20;2.40;;;10.70;99.90;;;;;;5060460;28;20236;-71
2021/07/10 12:44:25;;;;;;;5.03;2.70;;;10.60;99.90;;;;;;5074523;28;20178;-71
2021/07/10 12:47:00;;;;;;;3.97;2.57;;;10.60;99.90;;;;;;5061875;28;20311;-69
2021/07/10 12:49:45;;;;;;;5.63;2.63;;;10.60;99.90;;;;;;5072563;28;20189;-70
2021/07/10 12:52:50;;;;;;;4.20;2.50;;;10.60;99.90;;;;;;5074586;28;20257;-70
2021/07/10 12:55:27;;;;;;;6.40;3.10;;;10.60;99.90;;;;;;5074830;28;20198;-70
2021/07/10 12:57:59;;;;;;;7.87;4.77;;;10.50;99.90;;;;;;5074823;28;20203;-71
2021/07/10 13:00:29;;;;;;;8.13;4.87;;;10.50;99.90;;;;;;5060221;28;20201;-72
2021/07/10 13:03:02;;;;;;;9.37;5.00;;;10.50;99.90;;;;;;5074052;28;20178;-72